sensor_id;sensor_type;location;lat;lon;timestamp;temperature;humidity
38860;DHT22;24609;48.316;16.174;2023-05-07T00:01:50;11.60;99.90
38860;DHT22;24609;48.316;16.174;2023-05-07T00:04:16;11.50;99.90
38860;DHT22;24609;48.316;16.174;2023-05-07T00:06:41;11.40;99.90
38860;DHT22;24609;48.316;16.174;2023-05-07T00:09:07;11.40;99.90
38860;DHT22;24609;48.316;16.174;2023-05-07T00:11:33;11.40;99.90
38860;DHT22;24609;48.316;16.174;2023-05-07T00:13:59;11.40;99.90
38860;DHT22;24609;48.316;16.174;2023-05-07T00:16:25;11.60;99.90
38860;DHT22;24609;48.316;16.174;2023-05-07T00:18:51;11.50;99.90
38860;DHT22;24609;48.316;16.174;2023-05-07T00:21:16;11.40;99.90
38860;DHT22;24609;48.316;16.174;2023-05-07T00:23:42;11.40;99.90
38860;DHT22;24609;48.316;16.174;2023-05-07T00:26:08;11.40;99.90
38860;DHT22;24609;48.316;16.174;2023-05-07T00:28:33;11.30;99.90
38860;DHT22;24609;48.316;16.174;2023-05-07T00:30:59;11.20;99.90
38860;DHT22;24609;48.316;16.174;2023-05-07T00:33:25;11.10;99.90
38860;DHT22;24609;48.316;16.174;2023-05-07T00:35:52;10.90;99.90
38860;DHT22;24609;48.316;16.174;2023-05-07T00:38:17;10.90;99.90
38860;DHT22;24609;48.316;16.174;2023-05-07T00:40:43;10.90;99.90
38860;DHT22;24609;48.316;16.174;2023-05-07T00:43:09;10.90;99.90
38860;DHT22;24609;48.316;16.174;2023-05-07T00:45:34;10.90;99.90
38860;DHT22;24609;48.316;16.174;2023-05-07T00:48:01;10.90;99.90
38860;DHT22;24609;48.316;16.174;2023-05-07T00:50:28;10.70;99.90
38860;DHT22;24609;48.316;16.174;2023-05-07T00:52:54;10.80;99.90
38860;DHT22;24609;48.316;16.174;2023-05-07T00:55:21;10.70;99.90
38860;DHT22;24609;48.316;16.174;2023-05-07T00:57:46;10.70;99.90
38860;DHT22;24609;48.316;16.174;2023-05-07T01:00:12;10.60;99.90
38860;DHT22;24609;48.316;16.174;2023-05-07T01:02:39;10.60;99.90
38860;DHT22;24609;48.316;16.174;2023-05-07T01:05:06;10.60;99.90
38860;DHT22;24609;48.316;16.174;2023-05-07T01:07:33;10.60;99.90
38860;DHT22;24609;48.316;16.174;2023-05-07T01:10:00;10.70;99.90
38860;DHT22;24609;48.316;16.174;2023-05-07T01:12:27;10.70;99.90
38860;DHT22;24609;48.316;16.174;2023-05-07T01:14:53;10.80;99.90
38860;DHT22;24609;48.316;16.174;2023-05-07T01:17:19;10.80;99.90
38860;DHT22;24609;48.316;16.174;2023-05-07T01:19:45;10.80;99.90
38860;DHT22;24609;48.316;16.174;2023-05-07T01:22:15;10.80;99.90
38860;DHT22;24609;48.316;16.174;2023-05-07T01:24:42;10.80;99.90
38860;DHT22;24609;48.316;16.174;2023-05-07T01:27:08;10.70;99.90
38860;DHT22;24609;48.316;16.174;2023-05-07T01:29:34;10.70;99.90
38860;DHT22;24609;48.316;16.174;2023-05-07T01:32:00;10.70;99.90
38860;DHT22;24609;48.316;16.174;2023-05-07T01:34:29;10.70;99.90
38860;DHT22;24609;48.316;16.174;2023-05-07T01:36:56;10.80;99.90
38860;DHT22;24609;48.316;16.174;2023-05-07T01:39:26;10.70;99.90
38860;DHT22;24609;48.316;16.174;2023-05-07T01:41:56;10.70;99.90
38860;DHT22;24609;48.316;16.174;2023-05-07T01:44:22;10.80;99.90
38860;DHT22;24609;48.316;16.174;2023-05-07T01:46:49;10.80;99.90
38860;DHT22;24609;48.316;16.174;2023-05-07T01:49:15;10.80;99.90
38860;DHT22;24609;48.316;16.174;2023-05-07T01:51:41;10.80;99.90
38860;DHT22;24609;48.316;16.174;2023-05-07T01:54:08;10.90;99.90
38860;DHT22;24609;48.316;16.174;2023-05-07T01:56:34;10.90;99.90
38860;DHT22;24609;48.316;16.174;2023-05-07T01:59:00;11.00;99.90
38860;DHT22;24609;48.316;16.174;2023-05-07T02:01:25;11.00;99.90
38860;DHT22;24609;48.316;16.174;2023-05-07T02:03:51;10.90;99.90
38860;DHT22;24609;48.316;16.174;2023-05-07T02:06:17;10.70;99.90
38860;DHT22;24609;48.316;16.174;2023-05-07T02:08:43;10.60;99.90
38860;DHT22;24609;48.316;16.174;2023-05-07T02:11:08;10.70;99.90
38860;DHT22;24609;48.316;16.174;2023-05-07T02:13:34;10.70;99.90
38860;DHT22;24609;48.316;16.174;2023-05-07T02:16:00;10.70;99.90
38860;DHT22;24609;48.316;16.174;2023-05-07T02:18:26;10.60;99.90
38860;DHT22;24609;48.316;16.174;2023-05-07T02:20:52;10.50;99.90
38860;DHT22;24609;48.316;16.174;2023-05-07T02:23:18;10.50;99.90
38860;DHT22;24609;48.316;16.174;2023-05-07T02:25:44;10.40;99.90
38860;DHT22;24609;48.316;16.174;2023-05-07T02:28:09;10.40;99.90
38860;DHT22;24609;48.316;16.174;2023-05-07T02:30:36;10.30;99.90
38860;DHT22;24609;48.316;16.174;2023-05-07T02:33:02;10.30;99.90
38860;DHT22;24609;48.316;16.174;2023-05-07T02:35:28;10.30;99.90
38860;DHT22;24609;48.316;16.174;2023-05-07T02:37:54;10.40;99.90
38860;DHT22;24609;48.316;16.174;2023-05-07T02:40:19;10.30;99.90
38860;DHT22;24609;48.316;16.174;2023-05-07T02:42:45;10.20;99.90
38860;DHT22;24609;48.316;16.174;2023-05-07T02:45:11;10.20;99.90
38860;DHT22;24609;48.316;16.174;2023-05-07T02:47:36;10.20;99.90
38860;DHT22;24609;48.316;16.174;2023-05-07T02:50:03;10.20;99.90
38860;DHT22;24609;48.316;16.174;2023-05-07T02:52:29;10.10;99.90
38860;DHT22;24609;48.316;16.174;2023-05-07T02:54:54;10.10;99.90
38860;DHT22;24609;48.316;16.174;2023-05-07T02:57:20;10.00;99.90
38860;DHT22;24609;48.316;16.174;2023-05-07T02:59:46;9.90;99.90
38860;DHT22;24609;48.316;16.174;2023-05-07T03:02:11;9.90;99.90
38860;DHT22;24609;48.316;16.174;2023-05-07T03:04:39;10.00;99.90
38860;DHT22;24609;48.316;16.174;2023-05-07T03:07:05;9.90;99.90
38860;DHT22;24609;48.316;16.174;2023-05-07T03:09:31;9.80;99.90
38860;DHT22;24609;48.316;16.174;2023-05-07T03:11:57;9.80;99.90
38860;DHT22;24609;48.316;16.174;2023-05-07T03:14:22;9.90;99.90
38860;DHT22;24609;48.316;16.174;2023-05-07T03:16:49;9.80;99.90
38860;DHT22;24609;48.316;16.174;2023-05-07T03:19:15;9.70;99.90
38860;DHT22;24609;48.316;16.174;2023-05-07T03:21:41;9.70;99.90
38860;DHT22;24609;48.316;16.174;2023-05-07T03:24:07;9.70;99.90
38860;DHT22;24609;48.316;16.174;2023-05-07T03:26:32;9.70;99.90
38860;DHT22;24609;48.316;16.174;2023-05-07T03:28:58;9.70;99.90
38860;DHT22;24609;48.316;16.174;2023-05-07T03:31:24;9.80;99.90
38860;DHT22;24609;48.316;16.174;2023-05-07T03:33:58;9.80;99.90
38860;DHT22;24609;48.316;16.174;2023-05-07T03:36:24;9.70;99.90
38860;DHT22;24609;48.316;16.174;2023-05-07T03:38:52;9.70;99.90
38860;DHT22;24609;48.316;16.174;2023-05-07T03:41:17;9.70;99.90
38860;DHT22;24609;48.316;16.174;2023-05-07T03:43:43;9.70;99.90
38860;DHT22;24609;48.316;16.174;2023-05-07T03:46:09;9.80;99.90
38860;DHT22;24609;48.316;16.174;2023-05-07T03:48:34;9.80;99.90
38860;DHT22;24609;48.316;16.174;2023-05-07T03:51:00;9.90;99.90
38860;DHT22;24609;48.316;16.174;2023-05-07T03:53:26;10.00;99.90
38860;DHT22;24609;48.316;16.174;2023-05-07T03:55:51;9.80;99.90
38860;DHT22;24609;48.316;16.174;2023-05-07T03:58:17;9.70;99.90
38860;DHT22;24609;48.316;16.174;2023-05-07T04:00:43;9.70;99.90
38860;DHT22;24609;48.316;16.174;2023-05-07T04:03:08;9.80;99.90
38860;DHT22;24609;48.316;16.174;2023-05-07T04:05:34;9.90;99.90
38860;DHT22;24609;48.316;16.174;2023-05-07T04:08:00;10.00;99.90
38860;DHT22;24609;48.316;16.174;2023-05-07T04:10:26;10.00;99.90
38860;DHT22;24609;48.316;16.174;2023-05-07T04:12:53;10.00;99.90
38860;DHT22;24609;48.316;16.174;2023-05-07T04:15:19;10.10;99.90
38860;DHT22;24609;48.316;16.174;2023-05-07T04:17:45;10.10;99.90
38860;DHT22;24609;48.316;16.174;2023-05-07T04:20:15;10.30;99.90
38860;DHT22;24609;48.316;16.174;2023-05-07T04:22:42;10.40;99.90
38860;DHT22;24609;48.316;16.174;2023-05-07T04:25:08;10.50;99.90
38860;DHT22;24609;48.316;16.174;2023-05-07T04:27:37;10.70;99.90
38860;DHT22;24609;48.316;16.174;2023-05-07T04:30:03;10.70;99.90
38860;DHT22;24609;48.316;16.174;2023-05-07T04:32:30;10.90;99.90
38860;DHT22;24609;48.316;16.174;2023-05-07T04:34:56;11.10;99.90
38860;DHT22;24609;48.316;16.174;2023-05-07T04:37:22;11.30;99.90
38860;DHT22;24609;48.316;16.174;2023-05-07T04:39:47;11.60;99.90
38860;DHT22;24609;48.316;16.174;2023-05-07T04:42:17;11.80;99.90
38860;DHT22;24609;48.316;16.174;2023-05-07T04:44:46;12.00;99.90
38860;DHT22;24609;48.316;16.174;2023-05-07T04:47:12;12.20;99.90
38860;DHT22;24609;48.316;16.174;2023-05-07T04:49:40;12.50;99.90
38860;DHT22;24609;48.316;16.174;2023-05-07T04:52:06;12.70;99.90
38860;DHT22;24609;48.316;16.174;2023-05-07T04:54:31;12.80;99.90
38860;DHT22;24609;48.316;16.174;2023-05-07T04:56:57;12.70;99.90
38860;DHT22;24609;48.316;16.174;2023-05-07T04:59:23;12.70;99.90
38860;DHT22;24609;48.316;16.174;2023-05-07T05:01:48;12.70;99.90
38860;DHT22;24609;48.316;16.174;2023-05-07T05:04:14;12.70;99.90
38860;DHT22;24609;48.316;16.174;2023-05-07T05:06:40;12.70;99.90
38860;DHT22;24609;48.316;16.174;2023-05-07T05:09:06;12.70;99.90
38860;DHT22;24609;48.316;16.174;2023-05-07T05:11:32;12.60;99.90
38860;DHT22;24609;48.316;16.174;2023-05-07T05:13:59;12.70;99.90
38860;DHT22;24609;48.316;16.174;2023-05-07T05:16:26;12.80;99.90
38860;DHT22;24609;48.316;16.174;2023-05-07T05:18:52;12.90;99.90
38860;DHT22;24609;48.316;16.174;2023-05-07T05:21:19;13.10;99.90
38860;DHT22;24609;48.316;16.174;2023-05-07T05:23:45;13.10;99.90
38860;DHT22;24609;48.316;16.174;2023-05-07T05:26:11;13.20;99.90
38860;DHT22;24609;48.316;16.174;2023-05-07T05:28:37;13.40;99.90
38860;DHT22;24609;48.316;16.174;2023-05-07T05:31:02;13.70;99.90
38860;DHT22;24609;48.316;16.174;2023-05-07T05:33:28;14.10;99.90
38860;DHT22;24609;48.316;16.174;2023-05-07T05:35:54;14.40;99.90
38860;DHT22;24609;48.316;16.174;2023-05-07T05:38:20;14.80;99.90
38860;DHT22;24609;48.316;16.174;2023-05-07T05:40:46;15.10;99.90
38860;DHT22;24609;48.316;16.174;2023-05-07T05:43:13;15.20;99.90
38860;DHT22;24609;48.316;16.174;2023-05-07T05:45:39;15.10;99.90
38860;DHT22;24609;48.316;16.174;2023-05-07T05:48:05;14.80;99.90
38860;DHT22;24609;48.316;16.174;2023-05-07T05:50:31;14.80;99.90
38860;DHT22;24609;48.316;16.174;2023-05-07T05:52:57;14.90;99.90
38860;DHT22;24609;48.316;16.174;2023-05-07T05:55:23;15.10;99.90
38860;DHT22;24609;48.316;16.174;2023-05-07T05:57:49;15.40;99.90
38860;DHT22;24609;48.316;16.174;2023-05-07T06:00:16;15.70;99.90
38860;DHT22;24609;48.316;16.174;2023-05-07T06:02:42;15.90;99.90
38860;DHT22;24609;48.316;16.174;2023-05-07T06:05:08;15.90;99.90
38860;DHT22;24609;48.316;16.174;2023-05-07T06:07:34;16.10;99.90
38860;DHT22;24609;48.316;16.174;2023-05-07T06:10:00;16.00;99.90
38860;DHT22;24609;48.316;16.174;2023-05-07T06:12:26;16.30;99.90
38860;DHT22;24609;48.316;16.174;2023-05-07T06:14:52;16.20;99.90
38860;DHT22;24609;48.316;16.174;2023-05-07T06:17:18;16.00;99.90
38860;DHT22;24609;48.316;16.174;2023-05-07T06:19:43;15.70;99.90
38860;DHT22;24609;48.316;16.174;2023-05-07T06:22:09;15.60;99.90
38860;DHT22;24609;48.316;16.174;2023-05-07T06:24:35;15.20;99.90
38860;DHT22;24609;48.316;16.174;2023-05-07T06:27:01;15.60;99.90
38860;DHT22;24609;48.316;16.174;2023-05-07T06:29:26;16.00;99.90
38860;DHT22;24609;48.316;16.174;2023-05-07T06:31:55;16.50;99.90
38860;DHT22;24609;48.316;16.174;2023-05-07T06:34:21;17.20;99.90
38860;DHT22;24609;48.316;16.174;2023-05-07T06:36:46;16.90;99.90
38860;DHT22;24609;48.316;16.174;2023-05-07T06:39:12;17.20;99.90
38860;DHT22;24609;48.316;16.174;2023-05-07T06:41:38;18.00;99.90
38860;DHT22;24609;48.316;16.174;2023-05-07T06:44:04;17.90;99.90
38860;DHT22;24609;48.316;16.174;2023-05-07T06:46:30;17.20;99.90
38860;DHT22;24609;48.316;16.174;2023-05-07T06:48:56;17.30;99.90
38860;DHT22;24609;48.316;16.174;2023-05-07T06:51:22;17.00;99.90
38860;DHT22;24609;48.316;16.174;2023-05-07T06:53:48;16.20;99.90
38860;DHT22;24609;48.316;16.174;2023-05-07T06:56:13;16.40;99.90
38860;DHT22;24609;48.316;16.174;2023-05-07T06:58:39;16.10;99.90
38860;DHT22;24609;48.316;16.174;2023-05-07T07:01:05;16.10;99.90
38860;DHT22;24609;48.316;16.174;2023-05-07T07:03:31;16.30;99.90
38860;DHT22;24609;48.316;16.174;2023-05-07T07:05:57;16.10;99.90
38860;DHT22;24609;48.316;16.174;2023-05-07T07:08:22;15.80;99.90
38860;DHT22;24609;48.316;16.174;2023-05-07T07:10:48;16.20;99.90
38860;DHT22;24609;48.316;16.174;2023-05-07T07:13:14;17.00;99.90
38860;DHT22;24609;48.316;16.174;2023-05-07T07:15:39;17.20;99.90
38860;DHT22;24609;48.316;16.174;2023-05-07T07:18:06;17.50;99.90
38860;DHT22;24609;48.316;16.174;2023-05-07T07:20:32;17.70;99.90
38860;DHT22;24609;48.316;16.174;2023-05-07T07:22:57;18.10;99.90
38860;DHT22;24609;48.316;16.174;2023-05-07T07:25:23;18.00;99.90
38860;DHT22;24609;48.316;16.174;2023-05-07T07:27:49;17.20;99.90
38860;DHT22;24609;48.316;16.174;2023-05-07T07:30:15;17.10;99.90
38860;DHT22;24609;48.316;16.174;2023-05-07T07:32:41;17.10;99.90
38860;DHT22;24609;48.316;16.174;2023-05-07T07:35:08;17.10;99.90
38860;DHT22;24609;48.316;16.174;2023-05-07T07:37:34;17.20;99.90
38860;DHT22;24609;48.316;16.174;2023-05-07T07:39:59;17.20;99.90
38860;DHT22;24609;48.316;16.174;2023-05-07T07:42:25;17.70;99.90
38860;DHT22;24609;48.316;16.174;2023-05-07T07:44:51;18.00;99.90
38860;DHT22;24609;48.316;16.174;2023-05-07T07:47:17;18.70;99.90
38860;DHT22;24609;48.316;16.174;2023-05-07T07:49:43;20.50;99.90
38860;DHT22;24609;48.316;16.174;2023-05-07T07:52:08;22.10;99.90
38860;DHT22;24609;48.316;16.174;2023-05-07T07:54:34;22.00;99.90
38860;DHT22;24609;48.316;16.174;2023-05-07T07:56:59;20.40;99.90
38860;DHT22;24609;48.316;16.174;2023-05-07T07:59:26;19.70;99.90
38860;DHT22;24609;48.316;16.174;2023-05-07T08:01:52;19.20;99.90
38860;DHT22;24609;48.316;16.174;2023-05-07T08:04:21;18.80;99.90
38860;DHT22;24609;48.316;16.174;2023-05-07T08:06:47;19.30;99.90
38860;DHT22;24609;48.316;16.174;2023-05-07T08:09:12;18.90;99.90
38860;DHT22;24609;48.316;16.174;2023-05-07T08:11:38;19.20;99.90
38860;DHT22;24609;48.316;16.174;2023-05-07T08:14:04;19.10;99.90
38860;DHT22;24609;48.316;16.174;2023-05-07T08:16:30;18.20;99.90
38860;DHT22;24609;48.316;16.174;2023-05-07T08:18:56;21.50;99.90
38860;DHT22;24609;48.316;16.174;2023-05-07T08:21:22;21.20;99.90
38860;DHT22;24609;48.316;16.174;2023-05-07T08:23:48;20.70;99.90
38860;DHT22;24609;48.316;16.174;2023-05-07T08:26:14;19.80;99.90
38860;DHT22;24609;48.316;16.174;2023-05-07T08:28:40;19.30;99.90
38860;DHT22;24609;48.316;16.174;2023-05-07T08:31:05;19.00;99.90
38860;DHT22;24609;48.316;16.174;2023-05-07T08:33:31;18.80;99.90
38860;DHT22;24609;48.316;16.174;2023-05-07T08:35:57;20.30;99.90
38860;DHT22;24609;48.316;16.174;2023-05-07T08:38:22;20.80;99.90
38860;DHT22;24609;48.316;16.174;2023-05-07T08:40:48;20.10;99.90
38860;DHT22;24609;48.316;16.174;2023-05-07T08:43:14;19.70;99.90
38860;DHT22;24609;48.316;16.174;2023-05-07T08:45:41;19.40;99.90
38860;DHT22;24609;48.316;16.174;2023-05-07T08:48:15;19.10;99.90
38860;DHT22;24609;48.316;16.174;2023-05-07T08:50:41;18.90;99.90
38860;DHT22;24609;48.316;16.174;2023-05-07T08:53:07;18.50;99.90
38860;DHT22;24609;48.316;16.174;2023-05-07T08:55:33;19.00;99.90
38860;DHT22;24609;48.316;16.174;2023-05-07T08:57:59;19.80;99.90
38860;DHT22;24609;48.316;16.174;2023-05-07T09:00:25;20.30;99.90
38860;DHT22;24609;48.316;16.174;2023-05-07T09:02:52;19.90;99.90
38860;DHT22;24609;48.316;16.174;2023-05-07T09:05:18;19.90;99.90
38860;DHT22;24609;48.316;16.174;2023-05-07T09:07:44;20.80;99.90
38860;DHT22;24609;48.316;16.174;2023-05-07T09:10:11;22.10;99.90
38860;DHT22;24609;48.316;16.174;2023-05-07T09:12:37;22.20;99.90
38860;DHT22;24609;48.316;16.174;2023-05-07T09:15:03;22.20;99.90
38860;DHT22;24609;48.316;16.174;2023-05-07T09:17:29;22.80;99.90
38860;DHT22;24609;48.316;16.174;2023-05-07T09:19:55;22.60;99.90
38860;DHT22;24609;48.316;16.174;2023-05-07T09:22:20;21.10;99.90
38860;DHT22;24609;48.316;16.174;2023-05-07T09:24:50;21.10;99.90
38860;DHT22;24609;48.316;16.174;2023-05-07T09:27:17;22.60;99.90
38860;DHT22;24609;48.316;16.174;2023-05-07T09:29:43;25.50;97.00
38860;DHT22;24609;48.316;16.174;2023-05-07T09:32:10;28.50;87.80
38860;DHT22;24609;48.316;16.174;2023-05-07T09:34:36;31.10;76.80
38860;DHT22;24609;48.316;16.174;2023-05-07T09:37:03;30.80;63.50
38860;DHT22;24609;48.316;16.174;2023-05-07T09:39:46;29.90;59.40
38860;DHT22;24609;48.316;16.174;2023-05-07T09:42:12;26.80;72.00
38860;DHT22;24609;48.316;16.174;2023-05-07T09:44:38;25.30;76.90
38860;DHT22;24609;48.316;16.174;2023-05-07T09:47:08;22.40;85.20
38860;DHT22;24609;48.316;16.174;2023-05-07T09:49:36;21.40;92.60
38860;DHT22;24609;48.316;16.174;2023-05-07T09:52:03;22.30;93.00
38860;DHT22;24609;48.316;16.174;2023-05-07T09:54:32;26.50;82.40
38860;DHT22;24609;48.316;16.174;2023-05-07T09:56:59;29.40;76.20
38860;DHT22;24609;48.316;16.174;2023-05-07T09:59:27;34.00;55.70
38860;DHT22;24609;48.316;16.174;2023-05-07T10:01:57;34.80;54.40
38860;DHT22;24609;48.316;16.174;2023-05-07T10:04:25;33.10;52.00
38860;DHT22;24609;48.316;16.174;2023-05-07T10:06:51;28.00;57.40
38860;DHT22;24609;48.316;16.174;2023-05-07T10:09:17;25.20;64.00
38860;DHT22;24609;48.316;16.174;2023-05-07T10:11:44;23.80;75.60
38860;DHT22;24609;48.316;16.174;2023-05-07T10:14:10;23.10;77.70
38860;DHT22;24609;48.316;16.174;2023-05-07T10:16:36;21.50;84.90
38860;DHT22;24609;48.316;16.174;2023-05-07T10:19:08;22.10;92.10
38860;DHT22;24609;48.316;16.174;2023-05-07T10:21:39;22.10;89.80
38860;DHT22;24609;48.316;16.174;2023-05-07T10:24:21;22.00;91.80
38860;DHT22;24609;48.316;16.174;2023-05-07T10:26:49;22.50;90.80
38860;DHT22;24609;48.316;16.174;2023-05-07T10:35:06;21.90;91.00
38860;DHT22;24609;48.316;16.174;2023-05-07T10:37:35;22.30;92.70
38860;DHT22;24609;48.316;16.174;2023-05-07T10:40:01;26.00;81.80
38860;DHT22;24609;48.316;16.174;2023-05-07T10:42:27;29.00;63.70
38860;DHT22;24609;48.316;16.174;2023-05-07T10:44:52;31.30;60.80
38860;DHT22;24609;48.316;16.174;2023-05-07T10:47:18;30.80;59.70
38860;DHT22;24609;48.316;16.174;2023-05-07T10:52:19;25.80;68.60
38860;DHT22;24609;48.316;16.174;2023-05-07T10:54:45;24.20;77.10
38860;DHT22;24609;48.316;16.174;2023-05-07T10:57:36;23.90;77.50
38860;DHT22;24609;48.316;16.174;2023-05-07T11:05:29;29.80;53.40
38860;DHT22;24609;48.316;16.174;2023-05-07T11:07:56;30.00;58.50
38860;DHT22;24609;48.316;16.174;2023-05-07T11:10:23;29.30;54.50
38860;DHT22;24609;48.316;16.174;2023-05-07T11:12:52;31.90;53.20
38860;DHT22;24609;48.316;16.174;2023-05-07T11:15:36;33.80;50.70
38860;DHT22;24609;48.316;16.174;2023-05-07T11:18:02;31.40;51.20
38860;DHT22;24609;48.316;16.174;2023-05-07T11:20:46;33.60;51.40
38860;DHT22;24609;48.316;16.174;2023-05-07T11:26:07;28.80;57.80
38860;DHT22;24609;48.316;16.174;2023-05-07T11:28:38;27.10;60.60
38860;DHT22;24609;48.316;16.174;2023-05-07T11:31:04;27.20;57.10
38860;DHT22;24609;48.316;16.174;2023-05-07T11:33:30;30.10;58.30
38860;DHT22;24609;48.316;16.174;2023-05-07T11:35:56;32.80;48.40
38860;DHT22;24609;48.316;16.174;2023-05-07T11:38:23;34.30;46.30
38860;DHT22;24609;48.316;16.174;2023-05-07T11:40:55;31.00;47.80
38860;DHT22;24609;48.316;16.174;2023-05-07T11:43:21;28.20;53.60
38860;DHT22;24609;48.316;16.174;2023-05-07T11:45:48;28.90;54.00
38860;DHT22;24609;48.316;16.174;2023-05-07T11:48:14;29.60;54.50
38860;DHT22;24609;48.316;16.174;2023-05-07T11:51:06;32.30;52.00
38860;DHT22;24609;48.316;16.174;2023-05-07T11:53:39;35.10;48.00
38860;DHT22;24609;48.316;16.174;2023-05-07T11:56:08;35.20;44.10
38860;DHT22;24609;48.316;16.174;2023-05-07T11:58:34;33.90;42.80
38860;DHT22;24609;48.316;16.174;2023-05-07T12:01:00;32.00;44.10
38860;DHT22;24609;48.316;16.174;2023-05-07T12:03:26;26.90;54.50
38860;DHT22;24609;48.316;16.174;2023-05-07T12:05:52;27.50;54.50
38860;DHT22;24609;48.316;16.174;2023-05-07T12:08:18;31.50;49.40
38860;DHT22;24609;48.316;16.174;2023-05-07T12:10:46;31.50;46.30
38860;DHT22;24609;48.316;16.174;2023-05-07T12:13:24;29.10;52.20
38860;DHT22;24609;48.316;16.174;2023-05-07T12:15:54;29.50;53.60
38860;DHT22;24609;48.316;16.174;2023-05-07T12:18:20;32.50;45.60
38860;DHT22;24609;48.316;16.174;2023-05-07T12:20:47;30.10;48.50
38860;DHT22;24609;48.316;16.174;2023-05-07T12:23:13;31.30;48.70
38860;DHT22;24609;48.316;16.174;2023-05-07T12:25:40;31.90;49.30
38860;DHT22;24609;48.316;16.174;2023-05-07T12:28:13;34.30;46.90
38860;DHT22;24609;48.316;16.174;2023-05-07T12:30:43;35.00;44.40
38860;DHT22;24609;48.316;16.174;2023-05-07T12:33:09;32.50;43.80
38860;DHT22;24609;48.316;16.174;2023-05-07T12:35:40;31.30;47.10
38860;DHT22;24609;48.316;16.174;2023-05-07T12:38:11;33.80;45.00
38860;DHT22;24609;48.316;16.174;2023-05-07T12:40:40;32.80;43.20
38860;DHT22;24609;48.316;16.174;2023-05-07T12:43:06;31.30;45.50
38860;DHT22;24609;48.316;16.174;2023-05-07T12:45:37;33.00;43.50
38860;DHT22;24609;48.316;16.174;2023-05-07T12:48:04;33.00;43.70
38860;DHT22;24609;48.316;16.174;2023-05-07T12:50:33;34.90;41.30
38860;DHT22;24609;48.316;16.174;2023-05-07T12:52:59;34.70;41.70
38860;DHT22;24609;48.316;16.174;2023-05-07T12:55:24;31.20;44.60
38860;DHT22;24609;48.316;16.174;2023-05-07T12:57:53;29.40;47.80
38860;DHT22;24609;48.316;16.174;2023-05-07T13:00:38;30.60;46.90
38860;DHT22;24609;48.316;16.174;2023-05-07T13:03:04;33.50;44.50
38860;DHT22;24609;48.316;16.174;2023-05-07T13:05:31;35.70;40.60
38860;DHT22;24609;48.316;16.174;2023-05-07T13:07:58;36.40;39.40
38860;DHT22;24609;48.316;16.174;2023-05-07T13:10:24;32.30;41.20
38860;DHT22;24609;48.316;16.174;2023-05-07T13:12:50;31.20;42.90
38860;DHT22;24609;48.316;16.174;2023-05-07T13:15:17;27.90;47.80
38860;DHT22;24609;48.316;16.174;2023-05-07T13:17:43;27.70;49.20
38860;DHT22;24609;48.316;16.174;2023-05-07T13:20:10;29.50;46.80
38860;DHT22;24609;48.316;16.174;2023-05-07T13:22:37;29.80;47.60
38860;DHT22;24609;48.316;16.174;2023-05-07T13:25:02;30.80;45.70
38860;DHT22;24609;48.316;16.174;2023-05-07T13:27:28;32.70;44.00
38860;DHT22;24609;48.316;16.174;2023-05-07T13:29:56;33.20;44.70
38860;DHT22;24609;48.316;16.174;2023-05-07T13:32:22;34.80;41.30
38860;DHT22;24609;48.316;16.174;2023-05-07T13:34:47;33.00;42.50
38860;DHT22;24609;48.316;16.174;2023-05-07T13:37:13;32.20;41.70
38860;DHT22;24609;48.316;16.174;2023-05-07T13:39:39;34.30;41.10
38860;DHT22;24609;48.316;16.174;2023-05-07T13:42:04;35.30;39.10
38860;DHT22;24609;48.316;16.174;2023-05-07T13:44:30;36.30;38.40
38860;DHT22;24609;48.316;16.174;2023-05-07T13:46:56;36.40;37.30
38860;DHT22;24609;48.316;16.174;2023-05-07T13:49:22;33.50;41.40
38860;DHT22;24609;48.316;16.174;2023-05-07T13:51:47;32.10;41.30
38860;DHT22;24609;48.316;16.174;2023-05-07T13:54:13;32.60;40.90
38860;DHT22;24609;48.316;16.174;2023-05-07T13:56:39;32.50;40.60
38860;DHT22;24609;48.316;16.174;2023-05-07T13:59:04;31.90;39.60
38860;DHT22;24609;48.316;16.174;2023-05-07T14:01:31;31.40;43.80
38860;DHT22;24609;48.316;16.174;2023-05-07T14:03:57;30.50;45.40
38860;DHT22;24609;48.316;16.174;2023-05-07T14:06:23;26.30;48.90
38860;DHT22;24609;48.316;16.174;2023-05-07T14:08:49;24.50;53.20
38860;DHT22;24609;48.316;16.174;2023-05-07T14:11:14;27.50;53.00
38860;DHT22;24609;48.316;16.174;2023-05-07T14:13:40;30.50;49.40
38860;DHT22;24609;48.316;16.174;2023-05-07T14:16:06;33.20;44.50
38860;DHT22;24609;48.316;16.174;2023-05-07T14:18:31;33.10;41.20
38860;DHT22;24609;48.316;16.174;2023-05-07T14:20:59;34.00;39.30
38860;DHT22;24609;48.316;16.174;2023-05-07T14:23:24;33.60;39.60
38860;DHT22;24609;48.316;16.174;2023-05-07T14:25:52;30.50;42.70
38860;DHT22;24609;48.316;16.174;2023-05-07T14:28:18;26.50;48.90
38860;DHT22;24609;48.316;16.174;2023-05-07T14:30:44;24.80;52.40
38860;DHT22;24609;48.316;16.174;2023-05-07T14:33:10;24.00;55.00
38860;DHT22;24609;48.316;16.174;2023-05-07T14:35:36;24.80;53.00
38860;DHT22;24609;48.316;16.174;2023-05-07T14:38:01;28.00;47.90
38860;DHT22;24609;48.316;16.174;2023-05-07T14:40:27;29.10;46.40
38860;DHT22;24609;48.316;16.174;2023-05-07T14:42:53;27.90;47.10
38860;DHT22;24609;48.316;16.174;2023-05-07T14:45:20;26.50;49.90
38860;DHT22;24609;48.316;16.174;2023-05-07T14:47:46;26.00;52.20
38860;DHT22;24609;48.316;16.174;2023-05-07T14:50:12;23.90;56.30
38860;DHT22;24609;48.316;16.174;2023-05-07T14:52:37;22.60;60.00
38860;DHT22;24609;48.316;16.174;2023-05-07T14:55:03;23.10;59.20
38860;DHT22;24609;48.316;16.174;2023-05-07T14:57:30;23.00;58.50
38860;DHT22;24609;48.316;16.174;2023-05-07T14:59:58;22.10;60.80
38860;DHT22;24609;48.316;16.174;2023-05-07T15:02:23;21.30;64.90
38860;DHT22;24609;48.316;16.174;2023-05-07T15:04:49;21.10;65.80
38860;DHT22;24609;48.316;16.174;2023-05-07T15:07:15;20.80;69.70
38860;DHT22;24609;48.316;16.174;2023-05-07T15:09:42;21.00;69.10
38860;DHT22;24609;48.316;16.174;2023-05-07T15:12:08;22.10;62.20
38860;DHT22;24609;48.316;16.174;2023-05-07T15:14:34;23.60;59.40
38860;DHT22;24609;48.316;16.174;2023-05-07T15:17:00;24.90;56.30
38860;DHT22;24609;48.316;16.174;2023-05-07T15:19:26;26.10;54.90
38860;DHT22;24609;48.316;16.174;2023-05-07T15:21:58;26.40;54.00
38860;DHT22;24609;48.316;16.174;2023-05-07T15:24:25;25.00;54.40
38860;DHT22;24609;48.316;16.174;2023-05-07T15:26:53;25.30;54.90
38860;DHT22;24609;48.316;16.174;2023-05-07T15:29:19;25.10;53.50
38860;DHT22;24609;48.316;16.174;2023-05-07T15:31:45;24.30;54.70